Archbald, PA

6:52 AM EST on December 11, 2019 (GMT -0500)
Station N3UVR - Hills of Archbald | | Change Station
Active Advisory: Special Statement

Elev 978 ft 41.49 °N, 75.56 °W | Updated 9 seconds ago

Overcast
Overcast
24.6 °F
Feels Like 25 °F
N
0
Wind Variable Wind from West
Gusts 1.0 mph

Today
High -- | Low -- °F
--% Chance of Precip.
Yesterday
High -- | Low -- °F
Precip. -- in
Pressure 30.20 in
Visibility 10.0 miles
Clouds Overcast 2500 ft
Windchill 25 °F
Dew Point 19 °F
Humidity 78%
Rainfall 0.00 in
Snow Depth Not available.
7:18 AM 4:32 PM
Waxing Gibbous, 99% visible
METAR KAVP 111054Z 02007KT 10SM OVC025 M01/M07 A3018 RMK AO2 SLP226 T10111067
Pressure 30.20 in
Visibility 10.0 miles
Clouds Overcast 2500 ft
Windchill 25 °F
Dew Point 19 °F
Humidity 78%
Rainfall 0.00 in
Snow Depth Not available.
7:18 AM 4:32 PM
Waxing Gibbous, 99% visible
METAR KAVP 111054Z 02007KT 10SM OVC025 M01/M07 A3018 RMK AO2 SLP226 T10111067

Get Your Daily Forecast Email!

Thanks for signing up!

Be on the lookout for a verification email in your inbox.

You'll start receiving severe weather alerts in your inbox..

×

10-Day Weather Forecast

Almanac

Astronomy

Dec. 11, 2019 Rise Set
Actual Time
Civil Twilight
Nautical Twilight
Astronomical Twilight
Moon
Length of Visible Light
Length of Day
Tomorrow will be .
, % of the Moon is Illuminated

Today's Extremes

State Highs State Lows

Community

WunderPhotos

Category 6

Welcome to Category 6. This is the collective home for Weather Underground's featured writeups by Dr. Jeff Masters (right), Bob Henson (left), Chris Burt, and other regular contributors.

Nearby

Air Quality

  Air Quality AQ Index Pollutant
Not available.

Snow Depth

Station Depth Elevation

Earthquake Activity

City Distance Mag. Time & Date
Minimum magnitude displayed is 2.5.

Coastal Water Temperatures

Place Temperature

Stations

Nearby Weather Stations

Station Location Temp. Windchill Dew Point Humidity Wind Precip. Elev Updated Type
                   

Watches & Warnings

Special Statement
Issued: 12:13 AM EST Dec. 11, 2019 – National Weather Service

... Untreated roads may be slick early this morning...

As colder air overspreads the region, roads that were wet from
earlier rain may turn icy with temperatures dropping below
freezing this morning. Also, a dusting to inch of snow will fall,
especially in the higher terrain such as the Poconos to Catskills.
Exercise caution by slowing down and allowing extra space between
vehicles when traveling early this morning.